Time;durP1;ratioP1;P1;durP2;ratioP2;P2;SDS_P1;SDS_P2;PMS_P1;PMS_P2;Temp;Humidity;BMP_temperature;BMP_pressure;BME280_temperature;BME280_humidity;BME280_pressure;Samples;Min_cycle;Max_cycle;Signal;HPM_P1;HPM_P2
2021/10/22 00:00:51;;;;;;;4.05;1.92;;;;;;;;;;5076953;28;20208;-82
2021/10/22 00:03:19;;;;;;;5.57;1.85;;;;;;;;;;5080828;28;20197;-82
2021/10/22 00:05:49;;;;;;;3.22;1.40;;;;;;;;;;5088730;28;20193;-81
2021/10/22 00:08:17;;;;;;;4.57;2.72;;;;;;;;;;5076814;28;20217;-82
2021/10/22 00:10:46;;;;;;;5.20;1.77;;;;;;;;;;5077077;28;20292;-82
2021/10/22 00:13:14;;;;;;;5.50;2.10;;;;;;;;;;5076693;28;20315;-83
2021/10/22 00:15:42;;;;;;;4.18;1.95;;;;;;;;;;5077039;28;20193;-82
2021/10/22 00:18:10;;;;;;;1.67;1.20;;;;;;;;;;5074861;28;20221;-82
2021/10/22 00:20:38;;;;;;;4.00;1.90;;;;;;;;;;5075891;28;20191;-82
2021/10/22 00:23:06;;;;;;;3.85;2.25;;;;;;;;;;5076910;28;20189;-83
2021/10/22 00:25:34;;;;;;;4.18;1.40;;;;;;;;;;5082334;28;20193;-83
2021/10/22 00:28:03;;;;;;;1.40;1.30;;;;;;;;;;5076327;28;20711;-83
2021/10/22 00:30:30;;;;;;;3.38;2.38;;;;;;;;;;5076840;28;20201;-82
2021/10/22 00:32:58;;;;;;;4.97;1.60;;;;;;;;;;5077243;28;20213;-82
2021/10/22 00:35:25;;;;;;;2.30;1.50;;;;;;;;;;5076534;28;20200;-83
2021/10/22 00:37:53;;;;;;;1.85;1.42;;;;;;;;;;5076438;28;20204;-83
2021/10/22 00:40:22;;;;;;;6.53;2.10;;;;;;;;;;5076766;28;20216;-83
2021/10/22 00:42:49;;;;;;;2.60;1.25;;;;;;;;;;5076368;28;20211;-83
2021/10/22 00:45:18;;;;;;;2.15;1.60;;;;;;;;;;5091139;28;20620;-83
2021/10/22 00:47:46;;;;;;;2.95;1.48;;;;;;;;;;5095875;28;20191;-82
2021/10/22 00:50:13;;;;;;;4.88;2.03;;;;;;;;;;5097286;28;20233;-82
2021/10/22 00:52:45;;;;;;;3.05;1.92;;;;;;;;;;5097563;28;20196;-83
2021/10/22 00:55:15;;;;;;;6.20;1.50;;;;;;;;;;5096407;28;20189;-83
2021/10/22 00:57:43;;;;;;;7.88;1.70;;;;;;;;;;5096232;28;20690;-83
2021/10/22 01:00:13;;;;;;;2.92;1.77;;;;;;;;;;5091567;28;20193;-83
2021/10/22 01:02:42;;;;;;;3.20;1.63;;;;;;;;;;5076712;28;20178;-83
2021/10/22 01:05:12;;;;;;;2.40;1.48;;;;;;;;;;5082663;28;20642;-83
2021/10/22 01:07:41;;;;;;;2.72;1.67;;;;;;;;;;5096652;28;20287;-83
2021/10/22 01:10:11;;;;;;;6.18;1.85;;;;;;;;;;5096934;28;20207;-82
2021/10/22 01:12:39;;;;;;;3.90;1.70;;;;;;;;;;5096347;28;20654;-82
2021/10/22 01:15:08;;;;;;;2.40;1.33;;;;;;;;;;5088329;28;20598;-82
2021/10/22 01:17:39;;;;;;;5.57;1.60;;;;;;;;;;5076542;28;20195;-83
2021/10/22 01:20:12;;;;;;;6.18;1.73;;;;;;;;;;5094373;28;20214;-83
2021/10/22 01:22:42;;;;;;;7.85;3.30;;;;;;;;;;5096682;28;20540;-83
2021/10/22 01:25:14;;;;;;;3.25;1.40;;;;;;;;;;5096407;28;20176;-83
2021/10/22 01:27:43;;;;;;;4.70;1.80;;;;;;;;;;5096040;28;20180;-83
2021/10/22 01:30:12;;;;;;;4.65;1.77;;;;;;;;;;5096358;28;20291;-83
2021/10/22 01:32:41;;;;;;;5.00;2.15;;;;;;;;;;5096354;28;20662;-83
2021/10/22 01:35:10;;;;;;;1.92;1.63;;;;;;;;;;5096605;28;20193;-82
2021/10/22 01:37:39;;;;;;;2.58;1.23;;;;;;;;;;5095188;28;20184;-83
2021/10/22 01:40:09;;;;;;;1.83;1.40;;;;;;;;;;5096581;28;20184;-83
2021/10/22 01:42:37;;;;;;;4.00;1.70;;;;;;;;;;5096716;28;20190;-83
2021/10/22 01:45:05;;;;;;;1.30;1.20;;;;;;;;;;5095739;28;20583;-82
2021/10/22 01:47:33;;;;;;;5.47;2.47;;;;;;;;;;5091937;28;20181;-83
2021/10/22 01:50:00;;;;;;;2.05;1.35;;;;;;;;;;5076442;28;20223;-83
2021/10/22 01:52:28;;;;;;;1.40;1.15;;;;;;;;;;5076075;28;20599;-83
2021/10/22 01:54:57;;;;;;;3.05;2.17;;;;;;;;;;5075928;28;20235;-83
2021/10/22 01:57:25;;;;;;;3.90;1.20;;;;;;;;;;5078332;28;20184;-83
2021/10/22 01:59:53;;;;;;;6.13;2.97;;;;;;;;;;5096271;28;20228;-83
2021/10/22 02:02:20;;;;;;;4.43;1.73;;;;;;;;;;5096456;28;20180;-83
2021/10/22 02:04:48;;;;;;;1.95;1.08;;;;;;;;;;5096601;28;20581;-83
2021/10/22 02:07:16;;;;;;;2.50;1.20;;;;;;;;;;5096465;28;20265;-83
2021/10/22 02:09:43;;;;;;;1.80;1.30;;;;;;;;;;5083664;28;20213;-83
2021/10/22 02:12:12;;;;;;;2.20;1.30;;;;;;;;;;5075309;28;20233;-83
2021/10/22 02:14:40;;;;;;;1.88;1.30;;;;;;;;;;5076723;28;20208;-84
2021/10/22 02:17:07;;;;;;;2.95;1.52;;;;;;;;;;5089698;28;20203;-83
2021/10/22 02:19:35;;;;;;;4.72;1.95;;;;;;;;;;5096760;28;20838;-83
2021/10/22 02:22:02;;;;;;;2.38;1.65;;;;;;;;;;5097207;28;20188;-83
2021/10/22 02:24:29;;;;;;;1.80;1.30;;;;;;;;;;5096472;28;20685;-83
2021/10/22 02:26:57;;;;;;;2.53;1.40;;;;;;;;;;5083699;28;20201;-83
2021/10/22 02:29:26;;;;;;;1.50;1.40;;;;;;;;;;5075888;28;20213;-83
2021/10/22 02:31:53;;;;;;;6.25;2.45;;;;;;;;;;5076456;28;20630;-83
2021/10/22 02:34:20;;;;;;;2.88;1.27;;;;;;;;;;5075439;28;20200;-83
2021/10/22 02:36:49;;;;;;;3.08;2.17;;;;;;;;;;5086190;28;20199;-83
2021/10/22 02:39:17;;;;;;;2.00;1.48;;;;;;;;;;5094794;28;20226;-83
2021/10/22 02:41:45;;;;;;;2.13;1.20;;;;;;;;;;5095880;28;20198;-83
2021/10/22 02:44:13;;;;;;;2.35;1.50;;;;;;;;;;5095343;28;20548;-83
2021/10/22 02:46:42;;;;;;;2.17;1.60;;;;;;;;;;5095673;28;20200;-82
2021/10/22 02:49:09;;;;;;;3.95;1.63;;;;;;;;;;5095762;28;20315;-83
2021/10/22 02:51:37;;;;;;;5.97;2.13;;;;;;;;;;5095826;28;20204;-83
2021/10/22 02:54:05;;;;;;;4.18;2.88;;;;;;;;;;5095765;28;20200;-83
2021/10/22 02:56:33;;;;;;;4.95;2.00;;;;;;;;;;5096126;28;20184;-83
2021/10/22 02:59:00;;;;;;;1.60;1.42;;;;;;;;;;5096782;28;20225;-83
2021/10/22 03:01:27;;;;;;;2.97;2.08;;;;;;;;;;5096849;28;20200;-83
2021/10/22 03:03:56;;;;;;;3.85;2.38;;;;;;;;;;5093307;28;20200;-83
2021/10/22 03:06:25;;;;;;;5.88;2.30;;;;;;;;;;5073773;28;20197;-83
2021/10/22 03:08:52;;;;;;;2.70;1.58;;;;;;;;;;5073821;28;20227;-82
2021/10/22 03:11:20;;;;;;;4.65;1.85;;;;;;;;;;5087980;28;20824;-82
2021/10/22 03:13:47;;;;;;;3.58;1.67;;;;;;;;;;5092202;28;20235;-83
2021/10/22 03:16:15;;;;;;;3.22;1.88;;;;;;;;;;5094064;28;20196;-83
2021/10/22 03:18:42;;;;;;;2.20;1.80;;;;;;;;;;5087989;28;20586;-82
2021/10/22 03:21:11;;;;;;;3.03;1.88;;;;;;;;;;5072381;28;20192;-83
2021/10/22 03:23:39;;;;;;;3.15;2.10;;;;;;;;;;5073848;28;20201;-82
2021/10/22 03:26:06;;;;;;;4.88;2.03;;;;;;;;;;5091768;28;20196;-83
2021/10/22 03:28:33;;;;;;;4.25;2.10;;;;;;;;;;5093928;28;20224;-83
2021/10/22 03:31:01;;;;;;;6.35;2.10;;;;;;;;;;5094301;28;20189;-83
2021/10/22 03:33:28;;;;;;;3.40;2.38;;;;;;;;;;5094228;28;20196;-83
2021/10/22 03:35:56;;;;;;;2.55;1.73;;;;;;;;;;5079944;28;20201;-85
2021/10/22 03:38:24;;;;;;;3.85;2.78;;;;;;;;;;5074342;28;20228;-83
2021/10/22 03:40:52;;;;;;;2.00;1.90;;;;;;;;;;5074018;28;20229;-84
2021/10/22 03:43:19;;;;;;;3.20;2.20;;;;;;;;;;5074357;28;20274;-84
2021/10/22 03:45:47;;;;;;;5.15;1.90;;;;;;;;;;5089372;28;20189;-83
2021/10/22 03:48:15;;;;;;;2.45;2.00;;;;;;;;;;5094303;28;20216;-83
2021/10/22 03:50:42;;;;;;;4.68;2.10;;;;;;;;;;5094736;28;20188;-84
2021/10/22 03:53:10;;;;;;;4.45;2.22;;;;;;;;;;5094104;28;20668;-84
2021/10/22 03:55:39;;;;;;;2.28;1.50;;;;;;;;;;5092913;28;20184;-84
2021/10/22 03:58:07;;;;;;;2.63;2.42;;;;;;;;;;5093596;28;20281;-83
2021/10/22 04:00:35;;;;;;;2.65;1.70;;;;;;;;;;5091935;28;20228;-83
2021/10/22 04:03:04;;;;;;;6.03;3.60;;;;;;;;;;5092011;28;20628;-83
2021/10/22 04:05:32;;;;;;;2.08;1.52;;;;;;;;;;5079131;28;20190;-82
2021/10/22 04:08:00;;;;;;;2.15;1.58;;;;;;;;;;5071897;28;20201;-83
2021/10/22 04:10:28;;;;;;;3.13;1.83;;;;;;;;;;5071670;28;20201;-83
2021/10/22 04:12:56;;;;;;;2.63;2.17;;;;;;;;;;5071687;28;20233;-83
2021/10/22 04:15:24;;;;;;;4.70;1.65;;;;;;;;;;5071529;28;20664;-83
2021/10/22 04:17:51;;;;;;;3.58;2.22;;;;;;;;;;5071572;28;20651;-83
2021/10/22 04:20:19;;;;;;;3.67;1.90;;;;;;;;;;5072610;28;20229;-83
2021/10/22 04:22:47;;;;;;;3.53;1.85;;;;;;;;;;5075452;28;20199;-83
2021/10/22 04:25:14;;;;;;;3.00;1.90;;;;;;;;;;5075203;28;20632;-83
2021/10/22 04:27:42;;;;;;;5.05;2.28;;;;;;;;;;5075083;28;20204;-83
2021/10/22 04:30:12;;;;;;;3.28;1.88;;;;;;;;;;5075236;28;20208;-83
2021/10/22 04:32:39;;;;;;;3.33;1.98;;;;;;;;;;5075219;28;20186;-82
2021/10/22 04:35:07;;;;;;;3.13;1.88;;;;;;;;;;5075227;28;20227;-83
2021/10/22 04:37:46;;;;;;;3.25;2.15;;;;;;;;;;5075031;28;20583;-83
2021/10/22 04:40:32;;;;;;;3.00;2.33;;;;;;;;;;5075192;28;20227;-82
2021/10/22 04:43:04;;;;;;;4.63;1.83;;;;;;;;;;5075007;28;20212;-83
2021/10/22 04:45:35;;;;;;;2.13;1.95;;;;;;;;;;5075131;28;20194;-83
2021/10/22 04:48:04;;;;;;;4.07;2.15;;;;;;;;;;5075184;28;20234;-83
2021/10/22 04:50:32;;;;;;;3.15;1.88;;;;;;;;;;5074916;28;20188;-83
2021/10/22 04:53:00;;;;;;;2.15;1.55;;;;;;;;;;5074742;28;20191;-83
2021/10/22 04:55:29;;;;;;;5.53;2.30;;;;;;;;;;5074880;28;20566;-83
2021/10/22 04:57:56;;;;;;;5.85;3.40;;;;;;;;;;5074708;28;20225;-83
2021/10/22 05:00:24;;;;;;;2.70;1.60;;;;;;;;;;5074695;28;20232;-83
2021/10/22 05:02:54;;;;;;;3.95;2.30;;;;;;;;;;5074722;28;20182;-83
2021/10/22 05:05:21;;;;;;;2.28;1.77;;;;;;;;;;5074230;28;20201;-83
2021/10/22 05:07:49;;;;;;;3.33;1.95;;;;;;;;;;5074428;28;20208;-83
2021/10/22 05:10:16;;;;;;;2.40;2.00;;;;;;;;;;5074361;28;20186;-83
2021/10/22 05:12:44;;;;;;;3.15;1.85;;;;;;;;;;5091634;28;20235;-84
2021/10/22 05:15:12;;;;;;;3.85;2.30;;;;;;;;;;5094429;28;20695;-82
2021/10/22 05:17:40;;;;;;;2.88;2.17;;;;;;;;;;5094336;28;20211;-82
2021/10/22 05:20:12;;;;;;;5.30;2.40;;;;;;;;;;5094356;28;20246;-83
2021/10/22 05:22:41;;;;;;;1.60;1.50;;;;;;;;;;5094615;28;20193;-82
2021/10/22 05:25:11;;;;;;;3.42;1.60;;;;;;;;;;5094180;28;20228;-83
2021/10/22 05:27:39;;;;;;;3.45;1.70;;;;;;;;;;5080945;28;20289;-82
2021/10/22 05:30:09;;;;;;;3.08;2.58;;;;;;;;;;5073839;28;20213;-83
2021/10/22 05:32:36;;;;;;;3.20;1.45;;;;;;;;;;5073805;28;20252;-83
2021/10/22 05:35:04;;;;;;;2.90;1.90;;;;;;;;;;5073740;28;20197;-84
2021/10/22 05:37:33;;;;;;;1.80;1.63;;;;;;;;;;5073326;28;20189;-84
2021/10/22 05:40:01;;;;;;;3.40;1.67;;;;;;;;;;5073074;28;20224;-84
2021/10/22 05:42:29;;;;;;;1.90;1.50;;;;;;;;;;5073716;28;20200;-83
2021/10/22 05:44:56;;;;;;;5.68;1.63;;;;;;;;;;5086254;28;20204;-83
2021/10/22 05:47:23;;;;;;;1.80;1.60;;;;;;;;;;5093690;28;20223;-83
2021/10/22 05:49:51;;;;;;;4.35;1.80;;;;;;;;;;5093722;28;20224;-83
2021/10/22 05:52:18;;;;;;;2.90;1.98;;;;;;;;;;5094288;28;20189;-83
2021/10/22 05:54:47;;;;;;;2.22;1.70;;;;;;;;;;5093914;28;20192;-84
2021/10/22 05:57:15;;;;;;;1.58;1.45;;;;;;;;;;5093717;28;20641;-83
2021/10/22 05:59:42;;;;;;;2.17;1.38;;;;;;;;;;5093219;28;20220;-83
2021/10/22 06:02:09;;;;;;;2.17;1.92;;;;;;;;;;5093789;28;20216;-83
2021/10/22 06:04:37;;;;;;;4.05;2.72;;;;;;;;;;5093623;28;20208;-83
2021/10/22 06:07:05;;;;;;;2.22;1.85;;;;;;;;;;5093183;28;20276;-83
2021/10/22 06:09:32;;;;;;;2.53;2.00;;;;;;;;;;5092999;28;20251;-84
2021/10/22 06:12:01;;;;;;;3.53;2.30;;;;;;;;;;5093704;28;20193;-83
2021/10/22 06:14:29;;;;;;;2.08;1.42;;;;;;;;;;5093325;28;20224;-83
2021/10/22 06:16:57;;;;;;;3.85;1.50;;;;;;;;;;5093339;28;20200;-83
2021/10/22 06:19:27;;;;;;;1.45;1.27;;;;;;;;;;5079551;28;20213;-83
2021/10/22 06:22:10;;;;;;;4.47;3.47;;;;;;;;;;5073368;28;20579;-83
2021/10/22 06:24:38;;;;;;;2.33;1.85;;;;;;;;;;5073326;28;20246;-83
2021/10/22 06:27:09;;;;;;;5.53;1.98;;;;;;;;;;5072778;28;20201;-83
2021/10/22 06:29:36;;;;;;;4.20;2.55;;;;;;;;;;5090730;28;20224;-83
2021/10/22 06:32:04;;;;;;;2.88;2.05;;;;;;;;;;5092933;28;20207;-84
2021/10/22 06:34:31;;;;;;;3.63;2.05;;;;;;;;;;5085722;28;20197;-83
2021/10/22 06:36:59;;;;;;;4.35;3.00;;;;;;;;;;5073049;28;20185;-84
2021/10/22 06:39:26;;;;;;;5.07;2.75;;;;;;;;;;5072940;28;20221;-84
2021/10/22 06:41:54;;;;;;;5.07;2.38;;;;;;;;;;5073345;28;20247;-83
2021/10/22 06:44:25;;;;;;;3.47;1.83;;;;;;;;;;5091988;28;20215;-83
2021/10/22 06:46:53;;;;;;;3.72;2.45;;;;;;;;;;5092757;28;20658;-83
2021/10/22 06:49:20;;;;;;;3.75;2.10;;;;;;;;;;5093045;28;20255;-83
2021/10/22 06:51:50;;;;;;;2.83;2.08;;;;;;;;;;5093076;28;20187;-82
2021/10/22 06:54:18;;;;;;;3.17;2.13;;;;;;;;;;5092943;28;20208;-83
2021/10/22 06:56:45;;;;;;;3.45;1.77;;;;;;;;;;5092703;28;20596;-84
2021/10/22 06:59:13;;;;;;;2.70;1.80;;;;;;;;;;5087693;28;20223;-83
2021/10/22 07:01:42;;;;;;;3.22;1.58;;;;;;;;;;5072565;28;20220;-83
2021/10/22 07:04:11;;;;;;;4.05;2.53;;;;;;;;;;5073001;28;20185;-84
2021/10/22 07:09:24;;;;;;;2.03;1.80;;;;;;;;;;5077170;28;20620;-85
2021/10/22 07:11:52;;;;;;;3.92;1.77;;;;;;;;;;5091892;28;20204;-85
2021/10/22 07:14:20;;;;;;;9.68;3.33;;;;;;;;;;5092961;28;20208;-84
2021/10/22 07:16:48;;;;;;;6.30;2.20;;;;;;;;;;5093287;28;20223;-83
2021/10/22 07:19:16;;;;;;;2.30;1.90;;;;;;;;;;5092247;28;20227;-83
2021/10/22 07:21:48;;;;;;;4.15;2.67;;;;;;;;;;5093089;28;20208;-83
2021/10/22 07:24:19;;;;;;;4.32;2.10;;;;;;;;;;5093134;28;20188;-83
2021/10/22 07:26:47;;;;;;;5.97;3.40;;;;;;;;;;5092597;28;20196;-82
2021/10/22 07:29:16;;;;;;;7.38;2.70;;;;;;;;;;5092543;28;20653;-85
2021/10/22 07:31:43;;;;;;;3.95;2.95;;;;;;;;;;5092892;28;20181;-87
2021/10/22 07:34:14;;;;;;;2.95;1.75;;;;;;;;;;5076206;28;20197;-84
2021/10/22 07:36:42;;;;;;;3.33;1.98;;;;;;;;;;5080097;28;20247;-83
2021/10/22 07:39:10;;;;;;;3.22;2.40;;;;;;;;;;5072432;28;20239;-83
2021/10/22 07:41:37;;;;;;;3.20;2.03;;;;;;;;;;5072449;28;20209;-83
2021/10/22 07:44:05;;;;;;;4.60;2.25;;;;;;;;;;5072533;28;20189;-84
2021/10/22 07:46:33;;;;;;;5.47;2.22;;;;;;;;;;5072410;28;20189;-84
2021/10/22 07:49:00;;;;;;;4.57;3.00;;;;;;;;;;5072077;28;20218;-84
2021/10/22 07:51:29;;;;;;;5.43;2.45;;;;;;;;;;5072492;28;20189;-85
2021/10/22 07:53:56;;;;;;;3.63;2.58;;;;;;;;;;5072469;28;20189;-85
2021/10/22 07:56:24;;;;;;;5.72;2.25;;;;;;;;;;5075891;28;20188;-84
2021/10/22 07:58:51;;;;;;;6.28;2.25;;;;;;;;;;5076507;28;20248;-83
2021/10/22 08:01:20;;;;;;;4.72;1.90;;;;;;;;;;5076287;28;20212;-85
2021/10/22 08:03:49;;;;;;;5.47;2.20;;;;;;;;;;5076396;28;20185;-83
2021/10/22 08:06:16;;;;;;;2.97;1.48;;;;;;;;;;5085418;28;20196;-84
2021/10/22 08:08:47;;;;;;;2.00;1.50;;;;;;;;;;5075691;28;20593;-84
2021/10/22 08:11:15;;;;;;;2.85;1.73;;;;;;;;;;5093371;28;20263;-84
2021/10/22 08:13:43;;;;;;;3.03;2.00;;;;;;;;;;5096167;28;20710;-84
2021/10/22 08:16:11;;;;;;;5.82;2.20;;;;;;;;;;5097273;28;20635;-85
2021/10/22 08:18:40;;;;;;;6.05;1.92;;;;;;;;;;5096177;28;20620;-85
2021/10/22 08:21:17;;;;;;;5.80;2.00;;;;;;;;;;5095685;28;20292;-86
2021/10/22 08:23:47;;;;;;;5.68;2.40;;;;;;;;;;5082483;28;20593;-85
2021/10/22 08:26:15;;;;;;;3.88;2.30;;;;;;;;;;5074974;28;20192;-85
2021/10/22 08:28:43;;;;;;;5.70;2.40;;;;;;;;;;5075517;28;20221;-85
2021/10/22 08:31:34;;;;;;;2.67;1.67;;;;;;;;;;5076327;28;20250;-86
2021/10/22 08:34:09;;;;;;;2.42;1.88;;;;;;;;;;5075374;28;20186;-86
2021/10/22 08:36:36;;;;;;;2.47;1.80;;;;;;;;;;5079644;28;20184;-85
2021/10/22 08:39:05;;;;;;;3.45;1.90;;;;;;;;;;5095690;28;20224;-85
2021/10/22 08:41:58;;;;;;;2.83;1.30;;;;;;;;;;5095882;28;20196;-87
2021/10/22 08:44:56;;;;;;;3.95;1.90;;;;;;;;;;5095803;28;20192;-88
2021/10/22 08:47:31;;;;;;;2.67;1.52;;;;;;;;;;5095541;28;20211;-89
2021/10/22 08:50:01;;;;;;;2.38;1.42;;;;;;;;;;5075188;28;20605;-88
2021/10/22 08:52:33;;;;;;;3.08;2.50;;;;;;;;;;5075385;28;20258;-90
2021/10/22 08:55:04;;;;;;;1.95;1.48;;;;;;;;;;5075211;28;20181;-90
2021/10/22 08:57:37;;;;;;;2.70;1.67;;;;;;;;;;5092996;28;20677;-90
2021/10/22 09:00:07;;;;;;;4.70;2.33;;;;;;;;;;5081225;28;20225;-89
2021/10/22 09:02:34;;;;;;;2.20;1.35;;;;;;;;;;5079966;28;20579;-85
2021/10/22 09:05:15;;;;;;;3.88;2.05;;;;;;;;;;5080107;28;20215;-86
2021/10/22 09:07:45;;;;;;;7.28;1.95;;;;;;;;;;5079766;28;20201;-86
2021/10/22 09:10:18;;;;;;;3.28;1.35;;;;;;;;;;5092203;28;20242;-87
2021/10/22 09:12:50;;;;;;;2.28;1.85;;;;;;;;;;5095477;28;20220;-86
2021/10/22 09:15:23;;;;;;;2.97;1.27;;;;;;;;;;5115327;28;20254;-86
2021/10/22 09:17:52;;;;;;;2.25;1.42;;;;;;;;;;5116081;28;20272;-87
2021/10/22 09:20:20;;;;;;;3.17;1.73;;;;;;;;;;5116230;28;20222;-85
2021/10/22 09:22:53;;;;;;;4.35;2.45;;;;;;;;;;5115541;28;20851;-87
2021/10/22 09:25:25;;;;;;;3.05;1.67;;;;;;;;;;5111875;28;20180;-88
2021/10/22 09:27:56;;;;;;;3.45;1.83;;;;;;;;;;5075681;28;20185;-86
2021/10/22 09:30:31;;;;;;;2.90;1.80;;;;;;;;;;5094536;28;20711;-86
2021/10/22 09:33:02;;;;;;;3.90;1.52;;;;;;;;;;5074825;28;20276;-87
2021/10/22 09:35:43;;;;;;;4.70;1.50;;;;;;;;;;5075136;28;20189;-86
2021/10/22 09:38:18;;;;;;;2.85;1.60;;;;;;;;;;5084451;28;20244;-85
2021/10/22 09:40:54;;;;;;;4.95;1.90;;;;;;;;;;5095118;28;20198;-86
2021/10/22 09:43:26;;;;;;;2.00;1.40;;;;;;;;;;5094837;28;20200;-86
2021/10/22 09:46:11;;;;;;;2.67;1.17;;;;;;;;;;5094336;28;20636;-87
2021/10/22 09:48:41;;;;;;;7.15;2.38;;;;;;;;;;5093696;28;20221;-85
2021/10/22 09:51:29;;;;;;;1.90;1.20;;;;;;;;;;5093863;28;20655;-86
2021/10/22 09:54:07;;;;;;;1.77;1.60;;;;;;;;;;5093704;28;20666;-86
2021/10/22 09:56:52;;;;;;;1.88;1.55;;;;;;;;;;5087183;28;20188;-88
2021/10/22 09:59:23;;;;;;;4.20;1.50;;;;;;;;;;5073433;28;20213;-87
2021/10/22 10:01:54;;;;;;;3.63;1.60;;;;;;;;;;5073732;28;20201;-86
2021/10/22 10:04:23;;;;;;;3.97;1.60;;;;;;;;;;5089009;28;20623;-87
2021/10/22 10:06:53;;;;;;;1.80;1.40;;;;;;;;;;5094127;28;20608;-87
2021/10/22 10:09:22;;;;;;;2.95;1.30;;;;;;;;;;5080703;28;20221;-86
2021/10/22 10:11:53;;;;;;;2.92;1.30;;;;;;;;;;5073457;28;20551;-86
2021/10/22 10:14:23;;;;;;;3.85;1.60;;;;;;;;;;5073461;28;20733;-86
2021/10/22 10:16:51;;;;;;;4.10;1.83;;;;;;;;;;5073314;28;20272;-87
2021/10/22 10:19:24;;;;;;;5.63;2.40;;;;;;;;;;5072704;28;20221;-88
2021/10/22 10:21:55;;;;;;;2.80;1.25;;;;;;;;;;5088267;28;20185;-89
2021/10/22 10:24:30;;;;;;;2.03;1.40;;;;;;;;;;5093816;28;20211;-89
2021/10/22 10:27:11;;;;;;;2.45;1.95;;;;;;;;;;5094668;28;20176;-85
2021/10/22 10:29:44;;;;;;;3.03;1.50;;;;;;;;;;5094570;28;20925;-86
2021/10/22 10:32:28;;;;;;;3.00;1.50;;;;;;;;;;5078030;28;20199;-88
2021/10/22 10:35:28;;;;;;;3.17;1.55;;;;;;;;;;5094704;28;20631;-89
2021/10/22 10:38:00;;;;;;;2.38;1.55;;;;;;;;;;5093745;28;20563;-88
2021/10/22 10:40:30;;;;;;;2.35;1.80;;;;;;;;;;5095785;28;20263;-87
2021/10/22 10:43:03;;;;;;;2.90;1.40;;;;;;;;;;5095162;28;20267;-89
2021/10/22 10:45:57;;;;;;;5.63;1.52;;;;;;;;;;5095060;28;20197;-87
2021/10/22 10:48:24;;;;;;;4.63;2.50;;;;;;;;;;5094463;28;20217;-87
2021/10/22 10:51:09;;;;;;;1.27;1.17;;;;;;;;;;5095335;28;20200;-87
2021/10/22 10:53:40;;;;;;;1.98;1.50;;;;;;;;;;5094530;28;20571;-86
2021/10/22 10:56:34;;;;;;;3.28;1.55;;;;;;;;;;5078764;28;20734;-86
2021/10/22 10:59:04;;;;;;;5.60;1.65;;;;;;;;;;5074804;28;20815;-85
2021/10/22 11:01:57;;;;;;;3.03;1.80;;;;;;;;;;5073925;28;20188;-86
2021/10/22 11:04:49;;;;;;;2.45;1.52;;;;;;;;;;5074077;28;20279;-87
2021/10/22 11:07:40;;;;;;;1.98;1.33;;;;;;;;;;5080092;28;20222;-85
2021/10/22 11:10:58;;;;;;;1.95;1.42;;;;;;;;;;5094948;28;20227;-87
2021/10/22 11:13:26;;;;;;;1.73;1.15;;;;;;;;;;5094393;28;20281;-86
2021/10/22 11:16:30;;;;;;;2.17;1.45;;;;;;;;;;5093026;28;20207;-86
2021/10/22 11:19:04;;;;;;;2.65;1.20;;;;;;;;;;5078893;28;20217;-86
2021/10/22 11:21:41;;;;;;;3.22;1.30;;;;;;;;;;5073856;28;20239;-86
2021/10/22 11:24:29;;;;;;;2.45;1.40;;;;;;;;;;5074727;28;20223;-86
2021/10/22 11:27:02;;;;;;;2.63;1.50;;;;;;;;;;5074747;28;20192;-84
2021/10/22 11:29:33;;;;;;;2.83;1.27;;;;;;;;;;5076750;28;20226;-86
2021/10/22 11:32:04;;;;;;;2.42;1.50;;;;;;;;;;5079266;28;20200;-84
2021/10/22 11:34:44;;;;;;;1.98;1.35;;;;;;;;;;5078996;28;20185;-86
2021/10/22 11:37:19;;;;;;;1.90;1.27;;;;;;;;;;5079407;28;20196;-86
2021/10/22 11:39:50;;;;;;;1.55;1.10;;;;;;;;;;5079628;28;20725;-85
2021/10/22 11:42:30;;;;;;;2.30;1.40;;;;;;;;;;5078265;28;20670;-86
2021/10/22 11:45:02;;;;;;;3.22;1.42;;;;;;;;;;5076979;28;20212;-86
2021/10/22 11:47:39;;;;;;;3.58;1.50;;;;;;;;;;5078034;28;20669;-86
2021/10/22 11:50:21;;;;;;;2.15;1.48;;;;;;;;;;5080982;28;20243;-87
2021/10/22 11:53:14;;;;;;;2.05;1.17;;;;;;;;;;5097442;28;20200;-88
2021/10/22 11:56:02;;;;;;;3.40;1.33;;;;;;;;;;5098239;28;20232;-87
2021/10/22 11:58:55;;;;;;;3.40;1.40;;;;;;;;;;5096565;28;20251;-88
2021/10/22 12:01:40;;;;;;;2.13;1.55;;;;;;;;;;5097150;28;20560;-88
2021/10/22 12:04:26;;;;;;;2.17;1.30;;;;;;;;;;5098399;28;20258;-89
2021/10/22 12:07:11;;;;;;;3.15;1.75;;;;;;;;;;5096726;28;20204;-88
2021/10/22 12:09:57;;;;;;;1.77;1.10;;;;;;;;;;5097081;28;20683;-88
2021/10/22 12:12:27;;;;;;;2.05;1.20;;;;;;;;;;5095735;28;20227;-88
2021/10/22 12:15:05;;;;;;;2.22;1.35;;;;;;;;;;5096761;28;20234;-89
2021/10/22 12:17:38;;;;;;;3.85;1.50;;;;;;;;;;5096390;28;20192;-90
2021/10/22 12:21:17;;;;;;;2.33;1.58;;;;;;;;;;5096617;28;20212;-87
2021/10/22 12:24:18;;;;;;;1.20;1.00;;;;;;;;;;5096789;28;20177;-87
2021/10/22 12:27:05;;;;;;;1.65;0.98;;;;;;;;;;5096351;28;20209;-87
2021/10/22 12:30:08;;;;;;;1.80;1.00;;;;;;;;;;5099255;28;20219;-87
2021/10/22 12:33:08;;;;;;;1.40;0.90;;;;;;;;;;5097456;28;20216;-87
2021/10/22 12:35:42;;;;;;;2.05;1.23;;;;;;;;;;5097263;28;20575;-87
2021/10/22 12:38:32;;;;;;;2.42;1.48;;;;;;;;;;5097494;28;20232;-87
2021/10/22 12:41:05;;;;;;;1.33;1.23;;;;;;;;;;5096586;28;20196;-87
2021/10/22 12:44:12;;;;;;;2.58;1.27;;;;;;;;;;5097498;28;20552;-87
2021/10/22 12:46:55;;;;;;;2.25;1.27;;;;;;;;;;5096701;28;20230;-88
2021/10/22 12:49:34;;;;;;;6.03;1.77;;;;;;;;;;5096732;28;20216;-87
2021/10/22 12:52:20;;;;;;;1.98;1.50;;;;;;;;;;5096402;28;20199;-88
2021/10/22 12:54:51;;;;;;;3.10;1.00;;;;;;;;;;5096072;28;20271;-89
2021/10/22 12:57:29;;;;;;;1.50;1.30;;;;;;;;;;5096271;28;20193;-87
2021/10/22 13:00:21;;;;;;;1.25;0.93;;;;;;;;;;5096914;28;20234;-88
2021/10/22 13:02:49;;;;;;;3.88;1.13;;;;;;;;;;5096128;28;20197;-88
2021/10/22 13:05:21;;;;;;;2.05;1.30;;;;;;;;;;5096547;28;20747;-86
2021/10/22 13:08:39;;;;;;;2.70;0.93;;;;;;;;;;5095658;28;20193;-87
2021/10/22 13:11:35;;;;;;;2.10;0.90;;;;;;;;;;5095762;28;20257;-88
2021/10/22 13:20:35;;;;;;;2.85;1.70;;;;;;;;;;5013315;28;20190;-88
2021/10/22 13:23:10;;;;;;;1.30;1.20;;;;;;;;;;5014486;28;20210;-88
2021/10/22 13:26:33;;;;;;;1.98;1.10;;;;;;;;;;5014027;28;20222;-89
2021/10/22 13:29:19;;;;;;;2.40;1.48;;;;;;;;;;5013860;28;20226;-87
2021/10/22 13:31:55;;;;;;;1.50;1.00;;;;;;;;;;5014107;28;20203;-88
2021/10/22 13:34:35;;;;;;;1.73;1.05;;;;;;;;;;5060042;28;20684;-88
2021/10/22 13:37:10;;;;;;;1.67;1.50;;;;;;;;;;5096156;28;20208;-88
2021/10/22 13:39:56;;;;;;;1.10;1.02;;;;;;;;;;5095325;28;20216;-91
2021/10/22 13:42:30;;;;;;;1.80;1.30;;;;;;;;;;5095910;28;20551;-87
2021/10/22 13:45:19;;;;;;;3.70;1.60;;;;;;;;;;5096390;28;20621;-87
2021/10/22 13:47:55;;;;;;;2.17;1.70;;;;;;;;;;5096726;28;20204;-88
2021/10/22 13:50:42;;;;;;;1.70;1.60;;;;;;;;;;5096107;28;20220;-89
2021/10/22 13:53:19;;;;;;;1.20;1.10;;;;;;;;;;5094994;28;20212;-87
2021/10/22 13:55:49;;;;;;;1.88;1.20;;;;;;;;;;5095959;28;20200;-87
2021/10/22 13:58:34;;;;;;;1.08;1.00;;;;;;;;;;5096042;28;20319;-88
2021/10/22 14:01:04;;;;;;;3.63;1.52;;;;;;;;;;5095495;28;20204;-88
2021/10/22 14:03:48;;;;;;;2.17;1.23;;;;;;;;;;5095990;28;20200;-89
2021/10/22 14:06:28;;;;;;;2.60;1.30;;;;;;;;;;5095365;28;20580;-88
2021/10/22 14:09:01;;;;;;;2.28;1.27;;;;;;;;;;5095202;28;20232;-90
2021/10/22 14:11:42;;;;;;;1.50;1.40;;;;;;;;;;5095492;28;20188;-88
2021/10/22 14:14:29;;;;;;;1.67;1.30;;;;;;;;;;5094933;28;20319;-88
2021/10/22 14:17:38;;;;;;;2.08;1.17;;;;;;;;;;5095698;28;20200;-88
2021/10/22 14:30:24;;;;;;;1.30;1.17;;;;;;;;;;5071145;28;20219;-88
2021/10/22 14:32:59;;;;;;;1.60;1.50;;;;;;;;;;5067703;28;20210;-88
2021/10/22 14:35:39;;;;;;;3.65;2.00;;;;;;;;;;5067638;27;20555;-88
2021/10/22 14:38:10;;;;;;;2.72;1.50;;;;;;;;;;5066960;27;20710;-88
2021/10/22 14:40:42;;;;;;;1.30;1.20;;;;;;;;;;5067544;28;20703;-88
2021/10/22 14:43:29;;;;;;;3.80;2.42;;;;;;;;;;5067149;27;20300;-89
2021/10/22 14:46:08;;;;;;;3.67;1.25;;;;;;;;;;5067658;28;20606;-88
2021/10/22 14:48:40;;;;;;;2.65;1.58;;;;;;;;;;5067442;27;20231;-87
2021/10/22 14:51:20;;;;;;;1.90;1.20;;;;;;;;;;5067216;27;20201;-89
2021/10/22 14:53:57;;;;;;;2.17;1.60;;;;;;;;;;5067072;27;20228;-88
2021/10/22 14:56:31;;;;;;;3.38;1.55;;;;;;;;;;5067598;27;20636;-89
2021/10/22 14:59:09;;;;;;;1.50;1.40;;;;;;;;;;5067054;27;20750;-88
2021/10/22 15:01:46;;;;;;;1.80;1.40;;;;;;;;;;5067544;27;20290;-88
2021/10/22 15:04:25;;;;;;;1.67;1.40;;;;;;;;;;5067618;27;20216;-88
2021/10/22 15:07:12;;;;;;;1.20;1.10;;;;;;;;;;5067353;27;20659;-91
2021/10/22 15:09:41;;;;;;;1.50;1.40;;;;;;;;;;5067589;27;20225;-88
2021/10/22 15:12:39;;;;;;;2.03;1.65;;;;;;;;;;5068158;28;20189;-88
2021/10/22 15:15:19;;;;;;;1.40;1.30;;;;;;;;;;5067087;27;20558;-89
2021/10/22 15:17:50;;;;;;;1.98;1.58;;;;;;;;;;5065902;28;20560;-89
2021/10/22 15:20:27;;;;;;;1.88;1.00;;;;;;;;;;5066550;27;20193;-89
2021/10/22 15:23:51;;;;;;;5.75;1.92;;;;;;;;;;5066238;27;20236;-88
2021/10/22 15:26:25;;;;;;;1.75;1.65;;;;;;;;;;5067286;27;20201;-88
2021/10/22 15:29:04;;;;;;;2.90;1.27;;;;;;;;;;5066692;27;20217;-88
2021/10/22 15:31:41;;;;;;;1.55;1.45;;;;;;;;;;5066318;27;20708;-89
2021/10/22 15:34:12;;;;;;;1.48;1.20;;;;;;;;;;5055339;27;20241;-89
2021/10/22 15:37:00;;;;;;;1.40;1.20;;;;;;;;;;5053409;27;20266;-89
2021/10/22 15:40:25;;;;;;;1.23;1.08;;;;;;;;;;5052779;27;20641;-88